createdAt,value
2019-05-23T00:01:29.645Z,83.82
2019-05-23T00:04:14.198Z,83.97
2019-05-23T00:06:58.490Z,83.63
2019-05-23T00:09:42.950Z,84.02
2019-05-23T00:12:11.358Z,83.47
2019-05-23T00:14:54.690Z,82.98
2019-05-23T00:17:20.738Z,82.57
2019-05-23T00:19:47.631Z,82.67
2019-05-23T00:22:13.818Z,82.79
2019-05-23T00:24:39.959Z,82.95
2019-05-23T00:27:06.449Z,83.57
2019-05-23T00:29:33.031Z,83.73
2019-05-23T00:31:59.099Z,83.28
2019-05-23T00:34:26.841Z,82.52
2019-05-23T00:36:53.434Z,81.63
2019-05-23T00:39:19.420Z,82.70
2019-05-23T00:41:45.853Z,82.49
2019-05-23T00:44:12.428Z,82.82
2019-05-23T00:46:38.561Z,83.11
2019-05-23T00:49:04.948Z,83.63
2019-05-23T00:51:31.581Z,83.83
2019-05-23T00:53:57.960Z,84.58
2019-05-23T00:56:24.001Z,84.40
2019-05-23T00:58:50.076Z,84.08
2019-05-23T01:01:16.294Z,83.95
2019-05-23T01:03:42.909Z,83.97
2019-05-23T01:06:10.111Z,83.92
2019-05-23T01:08:36.587Z,83.33
2019-05-23T01:11:03.966Z,82.66
2019-05-23T01:13:29.898Z,83.10
2019-05-23T01:15:56.933Z,83.59
2019-05-23T01:18:22.860Z,84.59
2019-05-23T01:20:49.099Z,84.51
2019-05-23T01:23:15.271Z,84.74
2019-05-23T01:25:41.437Z,84.61
2019-05-23T01:28:07.564Z,84.58
2019-05-23T01:30:33.796Z,84.14
2019-05-23T01:33:00.830Z,84.18
2019-05-23T01:35:27.299Z,84.14
2019-05-23T01:37:53.845Z,84.26
2019-05-23T01:40:20.019Z,84.29
2019-05-23T01:42:46.352Z,84.07
2019-05-23T01:45:13.088Z,84.15
2019-05-23T01:47:39.419Z,83.65
2019-05-23T01:50:08.036Z,82.88
2019-05-23T01:52:34.546Z,82.88
2019-05-23T01:55:00.619Z,83.37
2019-05-23T01:57:26.564Z,83.64
2019-05-23T02:00:08.310Z,84.04
2019-05-23T02:02:20.589Z,84.28
2019-05-23T02:04:46.671Z,84.73
2019-05-23T02:07:12.892Z,84.29
2019-05-23T02:09:39.327Z,84.24
2019-05-23T02:12:07.819Z,84.20
2019-05-23T02:14:33.935Z,83.02
2019-05-23T02:17:00.576Z,83.01
2019-05-23T02:19:27.327Z,83.42
2019-05-23T02:21:53.357Z,83.84
2019-05-23T02:24:19.429Z,83.79
2019-05-23T02:26:45.868Z,84.15
2019-05-23T02:29:12.405Z,84.52
2019-05-23T02:31:38.579Z,84.67
2019-05-23T02:34:04.519Z,84.50
2019-05-23T02:36:30.807Z,84.52
2019-05-23T02:38:56.851Z,84.31
2019-05-23T02:41:22.927Z,84.14
2019-05-23T02:43:48.903Z,84.19
2019-05-23T02:46:15.776Z,83.85
2019-05-23T02:48:41.960Z,83.53
2019-05-23T02:51:11.739Z,83.86
2019-05-23T02:53:38.195Z,83.87
2019-05-23T02:56:10.171Z,84.12
2019-05-23T02:58:58.321Z,84.39
2019-05-23T03:01:30.859Z,84.60
2019-05-23T03:04:01.682Z,85.29
2019-05-23T03:06:28.504Z,85.60
2019-05-23T03:08:54.737Z,85.59
2019-05-23T03:11:27.287Z,85.40
2019-05-23T03:13:53.561Z,85.02
2019-05-23T03:16:22.588Z,84.87
2019-05-23T03:18:52.402Z,84.69
2019-05-23T03:21:18.744Z,84.19
2019-05-23T03:23:47.585Z,84.41
2019-05-23T03:26:35.500Z,84.55
2019-05-23T03:29:02.884Z,84.58
2019-05-23T03:31:31.894Z,84.67
2019-05-23T03:33:57.106Z,84.82
2019-05-23T03:36:23.158Z,84.91
2019-05-23T03:38:49.234Z,84.97
2019-05-23T03:41:15.701Z,84.75
2019-05-23T03:43:41.994Z,84.53
2019-05-23T03:46:11.223Z,84.44
2019-05-23T03:48:37.421Z,84.07
2019-05-23T03:51:04.567Z,84.11
2019-05-23T03:53:30.580Z,84.22
2019-05-23T03:55:56.806Z,83.97
2019-05-23T03:58:22.979Z,83.59
2019-05-23T04:00:49.755Z,83.55
2019-05-23T04:03:16.642Z,83.53
2019-05-23T04:05:42.852Z,83.45
2019-05-23T04:08:09.037Z,83.32
2019-05-23T04:10:35.566Z,83.12
2019-05-23T04:13:01.757Z,83.07
2019-05-23T04:15:27.954Z,83.16
2019-05-23T04:17:53.939Z,83.09
2019-05-23T04:20:20.034Z,82.87
2019-05-23T04:22:46.061Z,82.80
2019-05-23T04:25:12.188Z,82.51
2019-05-23T04:27:38.305Z,80.70
2019-05-23T04:30:09.101Z,76.85
2019-05-23T04:32:35.265Z,73.59
2019-05-23T04:35:02.056Z,71.88
2019-05-23T04:37:29.174Z,71.59
2019-05-23T04:39:55.138Z,70.47
2019-05-23T04:42:21.615Z,69.30
2019-05-23T04:44:47.940Z,67.84
2019-05-23T04:47:14.141Z,65.55
2019-05-23T04:49:41.620Z,63.88
2019-05-23T04:52:07.555Z,63.10
2019-05-23T04:54:34.575Z,60.92
2019-05-23T04:57:01.179Z,60.85
2019-05-23T04:59:28.161Z,60.82
2019-05-23T05:01:55.218Z,59.03
2019-05-23T05:04:22.606Z,59.36
2019-05-23T05:06:49.182Z,57.49
2019-05-23T05:09:15.344Z,59.40
2019-05-23T05:11:41.355Z,57.11
2019-05-23T05:14:07.479Z,57.41
2019-05-23T05:16:33.472Z,58.42
2019-05-23T05:18:59.517Z,58.86
2019-05-23T05:21:26.057Z,60.29
2019-05-23T05:23:52.325Z,61.64
2019-05-23T05:26:21.320Z,63.49
2019-05-23T05:28:47.348Z,62.33
2019-05-23T05:31:13.369Z,62.71
2019-05-23T05:33:39.568Z,62.61
2019-05-23T05:36:05.745Z,62.17
2019-05-23T05:38:32.139Z,60.95
2019-05-23T05:40:58.283Z,60.58
2019-05-23T05:43:24.976Z,55.61
2019-05-23T05:45:51.117Z,56.57
2019-05-23T05:48:17.419Z,54.13
2019-05-23T05:50:43.729Z,53.19
2019-05-23T05:53:10.080Z,52.40
2019-05-23T05:55:36.217Z,51.37
2019-05-23T05:58:02.495Z,51.24
2019-05-23T06:00:28.929Z,49.74
2019-05-23T06:03:04.211Z,49.87
2019-05-23T06:05:23.513Z,50.36
2019-05-23T06:07:49.508Z,52.03
2019-05-23T06:10:16.045Z,53.24
2019-05-23T06:12:42.227Z,53.05
2019-05-23T06:15:09.570Z,54.33
2019-05-23T06:17:35.738Z,54.65
2019-05-23T06:20:04.284Z,54.09
2019-05-23T06:22:30.764Z,55.65
2019-05-23T06:24:58.225Z,55.71
2019-05-23T06:27:24.683Z,57.20
2019-05-23T06:29:51.029Z,57.76
2019-05-23T06:32:17.202Z,56.77
2019-05-23T06:34:43.143Z,57.17
2019-05-23T06:37:09.367Z,56.13
2019-05-23T06:39:35.474Z,52.55
2019-05-23T06:42:02.256Z,49.44
2019-05-23T06:44:28.294Z,50.07
2019-05-23T06:46:54.636Z,49.36
2019-05-23T06:49:20.774Z,50.59
2019-05-23T06:51:46.852Z,50.73
2019-05-23T06:54:13.058Z,53.03
2019-05-23T06:56:39.000Z,52.40
2019-05-23T06:59:05.253Z,53.27
2019-05-23T07:01:31.491Z,52.37
2019-05-23T07:03:58.889Z,51.70
2019-05-23T07:06:25.222Z,49.99
2019-05-23T07:08:51.825Z,50.08
2019-05-23T07:11:20.526Z,50.15
2019-05-23T07:13:46.928Z,49.16
2019-05-23T07:16:12.880Z,49.16
2019-05-23T07:18:41.090Z,50.67
2019-05-23T07:21:07.593Z,49.30
2019-05-23T07:23:34.122Z,51.61
2019-05-23T07:26:00.186Z,51.44
2019-05-23T07:28:26.680Z,49.62
2019-05-23T07:30:52.921Z,49.05
2019-05-23T07:33:19.109Z,50.83
2019-05-23T07:35:45.188Z,49.04
2019-05-23T07:38:11.130Z,48.82
2019-05-23T07:40:37.647Z,47.81
2019-05-23T07:43:04.002Z,50.38
2019-05-23T07:45:30.026Z,48.74
2019-05-23T07:47:56.150Z,50.68
2019-05-23T07:50:22.526Z,51.45
2019-05-23T07:52:48.563Z,51.67
2019-05-23T07:55:15.762Z,50.73
2019-05-23T07:57:42.220Z,49.64
2019-05-23T08:00:09.498Z,51.11
2019-05-23T08:02:39.409Z,50.74
2019-05-23T08:05:06.106Z,49.67
2019-05-23T08:07:33.253Z,47.77
2019-05-23T08:09:59.510Z,47.33
2019-05-23T08:12:25.647Z,46.53
2019-05-23T08:14:52.265Z,46.73
2019-05-23T08:17:18.713Z,46.20
2019-05-23T08:19:49.686Z,47.88
2019-05-23T08:22:14.609Z,47.84
2019-05-23T08:24:40.675Z,47.04
2019-05-23T08:27:07.131Z,46.33
2019-05-23T08:29:33.097Z,44.20
2019-05-23T08:32:00.230Z,46.86
2019-05-23T08:34:40.939Z,47.14
2019-05-23T08:36:54.263Z,46.31
2019-05-23T08:39:20.298Z,45.69
2019-05-23T08:41:47.307Z,46.31
2019-05-23T08:44:13.268Z,46.61
2019-05-23T08:46:39.207Z,48.46
2019-05-23T08:49:06.003Z,47.57
2019-05-23T08:51:31.989Z,47.81
2019-05-23T08:53:58.190Z,45.17
2019-05-23T08:56:24.266Z,44.75
2019-05-23T08:58:50.406Z,45.62
2019-05-23T09:01:16.500Z,46.14
2019-05-23T09:03:43.003Z,45.59
2019-05-23T09:06:09.420Z,45.04
2019-05-23T09:08:35.975Z,44.04
2019-05-23T09:11:02.185Z,43.07
2019-05-23T09:13:28.444Z,43.45
2019-05-23T09:15:54.964Z,42.94
2019-05-23T09:18:20.951Z,42.02
2019-05-23T09:20:47.153Z,43.08
2019-05-23T09:23:13.409Z,41.60
2019-05-23T09:25:39.906Z,43.30
2019-05-23T09:28:07.173Z,41.50
2019-05-23T09:30:33.335Z,42.99
2019-05-23T09:32:59.347Z,43.48
2019-05-23T09:35:25.593Z,42.39
2019-05-23T09:37:51.804Z,41.93
2019-05-23T09:40:18.235Z,42.18
2019-05-23T09:42:44.821Z,42.86
2019-05-23T09:45:12.056Z,41.20
2019-05-23T09:47:38.312Z,42.55
2019-05-23T09:50:08.181Z,41.77
2019-05-23T09:52:34.258Z,41.03
2019-05-23T09:55:00.195Z,41.28
2019-05-23T09:57:26.490Z,42.06
2019-05-23T09:59:56.765Z,42.88
2019-05-23T10:02:20.589Z,41.90
2019-05-23T10:04:46.712Z,42.17
2019-05-23T10:07:12.792Z,44.08
2019-05-23T10:09:38.764Z,41.91
2019-05-23T10:12:04.984Z,42.65
2019-05-23T10:14:31.014Z,41.76
2019-05-23T10:16:56.947Z,41.25
2019-05-23T10:19:23.276Z,42.24
2019-05-23T10:21:50.466Z,41.79
2019-05-23T10:24:17.455Z,42.23
2019-05-23T10:26:43.515Z,41.46
2019-05-23T10:29:09.916Z,41.70
2019-05-23T10:31:35.945Z,36.87
2019-05-23T10:34:02.333Z,42.65
2019-05-23T10:36:28.293Z,44.61
2019-05-23T10:38:54.505Z,41.68
2019-05-23T10:41:20.462Z,42.12
2019-05-23T10:43:46.631Z,39.74
2019-05-23T10:46:12.881Z,39.82
2019-05-23T10:48:39.230Z,38.85
2019-05-23T10:51:05.607Z,39.80
2019-05-23T10:53:31.753Z,37.16
2019-05-23T10:55:57.827Z,42.38
2019-05-23T10:58:24.144Z,41.36
2019-05-23T11:00:50.491Z,38.50
2019-05-23T11:03:17.260Z,38.17
2019-05-23T11:05:43.660Z,39.64
2019-05-23T11:08:10.044Z,38.07
2019-05-23T11:10:36.261Z,35.21
2019-05-23T11:13:02.528Z,33.83
2019-05-23T11:15:28.836Z,38.64
2019-05-23T11:17:54.850Z,40.44
2019-05-23T11:20:21.102Z,39.42
2019-05-23T11:22:47.303Z,38.26
2019-05-23T11:25:14.003Z,35.04
2019-05-23T11:27:40.074Z,38.01
2019-05-23T11:30:07.984Z,38.64
2019-05-23T11:32:33.915Z,38.16
2019-05-23T11:34:59.989Z,38.00
2019-05-23T11:37:26.243Z,38.22
2019-05-23T11:39:52.694Z,38.41
2019-05-23T11:42:18.928Z,35.75
2019-05-23T11:44:45.239Z,36.10
2019-05-23T11:47:11.350Z,40.07
2019-05-23T11:49:37.668Z,36.18
2019-05-23T11:52:03.931Z,39.50
2019-05-23T11:54:30.180Z,36.29
2019-05-23T11:56:56.260Z,39.21
2019-05-23T11:59:22.409Z,40.42
2019-05-23T12:01:48.491Z,39.17
2019-05-23T12:04:14.630Z,40.08
2019-05-23T12:06:54.351Z,35.09
2019-05-23T12:09:09.698Z,40.36
2019-05-23T12:11:41.268Z,39.51
2019-05-23T12:14:03.979Z,37.12
2019-05-23T12:16:30.035Z,38.37
2019-05-23T12:18:56.026Z,39.50
2019-05-23T12:21:22.078Z,39.03
2019-05-23T12:23:48.236Z,35.71
2019-05-23T12:26:14.297Z,35.71
2019-05-23T12:28:40.385Z,38.56
2019-05-23T12:31:06.434Z,38.86
2019-05-23T12:33:32.581Z,36.67
2019-05-23T12:35:58.740Z,37.58
2019-05-23T12:38:24.760Z,37.35
2019-05-23T12:40:50.810Z,39.83
2019-05-23T12:43:16.885Z,39.48
2019-05-23T12:45:42.948Z,40.32
2019-05-23T12:48:09.242Z,39.64
2019-05-23T12:50:35.419Z,41.17
2019-05-23T12:53:01.638Z,37.59
2019-05-23T12:55:27.600Z,37.71
2019-05-23T12:57:53.673Z,36.32
2019-05-23T13:00:19.922Z,33.51
2019-05-23T13:02:46.015Z,36.76
2019-05-23T13:05:12.360Z,36.66
2019-05-23T13:07:38.718Z,36.00
2019-05-23T13:10:06.178Z,36.94
2019-05-23T13:12:33.440Z,36.29
2019-05-23T13:14:59.780Z,37.19
2019-05-23T13:17:26.023Z,36.56
2019-05-23T13:19:51.968Z,37.80
2019-05-23T13:22:18.209Z,33.09
2019-05-23T13:24:52.707Z,36.90
2019-05-23T13:27:12.354Z,36.43
2019-05-23T13:29:38.411Z,37.42
2019-05-23T13:32:05.059Z,38.93
2019-05-23T13:34:31.108Z,39.15
2019-05-23T13:36:57.155Z,37.76
2019-05-23T13:39:23.643Z,35.79
2019-05-23T13:41:49.722Z,35.72
2019-05-23T13:44:31.916Z,36.51
2019-05-23T13:46:43.833Z,39.05
2019-05-23T13:49:09.865Z,39.57
2019-05-23T13:51:37.022Z,39.94
2019-05-23T13:54:03.471Z,40.03
2019-05-23T13:56:29.771Z,39.43
2019-05-23T13:58:55.929Z,38.13
2019-05-23T14:01:22.006Z,37.62
2019-05-23T14:03:48.344Z,39.78
2019-05-23T14:06:14.627Z,39.87
2019-05-23T14:08:40.749Z,40.63
2019-05-23T14:11:06.777Z,42.10
2019-05-23T14:13:33.288Z,42.29
2019-05-23T14:15:59.533Z,42.47
2019-05-23T14:18:25.777Z,41.97
2019-05-23T14:20:51.872Z,41.69
2019-05-23T14:23:18.181Z,43.23
2019-05-23T14:25:44.499Z,42.12
2019-05-23T14:28:11.519Z,42.05
2019-05-23T14:30:38.074Z,42.00
2019-05-23T14:33:07.443Z,42.81
2019-05-23T14:35:33.509Z,43.51
2019-05-23T14:37:59.795Z,44.44
2019-05-23T14:40:25.751Z,41.43
2019-05-23T14:42:53.177Z,41.64
2019-05-23T14:45:19.683Z,42.37
2019-05-23T14:47:45.900Z,42.01
2019-05-23T14:50:13.345Z,42.63
2019-05-23T14:52:39.736Z,43.94
2019-05-23T14:55:10.300Z,44.05
2019-05-23T14:57:35.281Z,43.91
2019-05-23T15:00:03.680Z,44.36
2019-05-23T15:02:31.150Z,44.37
2019-05-23T15:04:57.321Z,43.97
2019-05-23T15:07:23.399Z,44.65
2019-05-23T15:09:49.448Z,44.19
2019-05-23T15:12:15.853Z,45.61
2019-05-23T15:14:41.978Z,42.72
2019-05-23T15:17:08.176Z,43.49
2019-05-23T15:19:44.058Z,43.22
2019-05-23T15:22:02.521Z,43.64
2019-05-23T15:24:28.684Z,41.97
2019-05-23T15:26:55.010Z,43.37
2019-05-23T15:29:20.979Z,41.48
2019-05-23T15:32:01.127Z,41.26
2019-05-23T15:34:15.400Z,41.01
2019-05-23T15:36:41.342Z,41.30
2019-05-23T15:39:09.906Z,42.05
2019-05-23T15:41:35.874Z,41.16
2019-05-23T15:44:01.978Z,39.33
2019-05-23T15:46:28.097Z,41.32
2019-05-23T15:48:54.045Z,40.01
2019-05-23T15:51:20.232Z,39.77
2019-05-23T15:53:46.580Z,41.39
2019-05-23T15:56:26.667Z,42.66
2019-05-23T15:58:42.805Z,41.76
2019-05-23T16:01:09.066Z,42.29
2019-05-23T16:03:35.176Z,42.30
2019-05-23T16:06:01.505Z,42.42
2019-05-23T16:08:28.743Z,41.10
2019-05-23T16:10:54.893Z,40.52
2019-05-23T16:13:21.269Z,43.34
2019-05-23T16:15:47.556Z,43.36
2019-05-23T16:18:13.957Z,43.52
2019-05-23T16:20:40.518Z,43.23
2019-05-23T16:23:06.581Z,42.45
2019-05-23T16:25:32.856Z,44.01
2019-05-23T16:27:58.981Z,44.56
2019-05-23T16:30:25.458Z,41.81
2019-05-23T16:32:51.518Z,42.76
2019-05-23T16:35:17.822Z,41.76
2019-05-23T16:37:43.761Z,40.70
2019-05-23T16:40:10.487Z,42.29
2019-05-23T16:42:37.046Z,42.49
2019-05-23T16:45:06.266Z,42.73
2019-05-23T16:47:32.391Z,43.09
2019-05-23T16:49:58.581Z,42.84
2019-05-23T16:52:24.834Z,43.96
2019-05-23T16:54:50.893Z,43.45
2019-05-23T16:57:17.013Z,46.13
2019-05-23T16:59:43.417Z,41.02
2019-05-23T17:02:09.658Z,41.08
2019-05-23T17:04:36.167Z,44.28
2019-05-23T17:07:03.073Z,40.84
2019-05-23T17:09:31.720Z,42.50
2019-05-23T17:11:57.235Z,43.22
2019-05-23T17:14:23.563Z,43.99
2019-05-23T17:16:49.714Z,41.72
2019-05-23T17:19:15.822Z,42.89
2019-05-23T17:21:42.170Z,43.04
2019-05-23T17:24:08.442Z,44.86
2019-05-23T17:26:34.812Z,45.95
2019-05-23T17:29:01.351Z,45.48
2019-05-23T17:31:27.517Z,45.36
2019-05-23T17:33:53.850Z,43.79
2019-05-23T17:36:20.007Z,45.63
2019-05-23T17:38:47.955Z,45.46
2019-05-23T17:41:14.101Z,44.54
2019-05-23T17:43:40.117Z,45.15
2019-05-23T17:46:06.354Z,49.49
2019-05-23T17:48:32.683Z,48.40
2019-05-23T17:50:59.764Z,47.71
2019-05-23T17:53:25.857Z,47.61
2019-05-23T17:55:51.979Z,48.13
2019-05-23T17:58:18.105Z,48.22
2019-05-23T18:00:44.243Z,48.64
2019-05-23T18:03:10.237Z,49.08
2019-05-23T18:05:36.221Z,49.86
2019-05-23T18:08:03.612Z,49.94
2019-05-23T18:10:44.086Z,50.24
2019-05-23T18:12:57.875Z,50.59
2019-05-23T18:15:25.486Z,50.35
2019-05-23T18:17:51.630Z,53.21
2019-05-23T18:20:17.970Z,49.86
2019-05-23T18:22:44.188Z,52.08
2019-05-23T18:25:10.767Z,53.64
2019-05-23T18:27:37.086Z,56.51
2019-05-23T18:30:04.839Z,56.45
2019-05-23T18:32:31.541Z,58.38
2019-05-23T18:34:57.629Z,59.24
2019-05-23T18:37:24.220Z,60.79
2019-05-23T18:39:50.261Z,58.52
2019-05-23T18:42:16.655Z,58.60
2019-05-23T18:44:44.067Z,58.67
2019-05-23T18:47:10.208Z,59.93
2019-05-23T18:49:36.206Z,60.47
2019-05-23T18:52:02.794Z,62.03
2019-05-23T18:54:28.731Z,60.76
2019-05-23T18:56:55.041Z,57.97
2019-05-23T18:59:21.085Z,59.56
2019-05-23T19:01:47.678Z,59.58
2019-05-23T19:04:13.981Z,62.13
2019-05-23T19:06:40.175Z,64.14
2019-05-23T19:09:08.544Z,63.96
2019-05-23T19:11:34.523Z,65.06
2019-05-23T19:14:00.708Z,63.99
2019-05-23T19:16:27.150Z,63.62
2019-05-23T19:18:53.166Z,63.69
2019-05-23T19:21:19.465Z,64.39
2019-05-23T19:23:45.606Z,65.08
2019-05-23T19:26:11.773Z,64.88
2019-05-23T19:28:37.880Z,64.92
2019-05-23T19:31:04.298Z,65.10
2019-05-23T19:33:30.729Z,65.96
2019-05-23T19:35:57.049Z,66.15
2019-05-23T19:38:23.094Z,66.34
2019-05-23T19:40:49.108Z,66.36
2019-05-23T19:43:15.823Z,66.47
2019-05-23T19:45:42.103Z,67.06
2019-05-23T19:48:08.422Z,66.96
2019-05-23T19:50:34.779Z,67.05
2019-05-23T19:53:00.783Z,67.11
2019-05-23T19:55:26.868Z,67.06
2019-05-23T19:57:53.959Z,67.80
2019-05-23T20:00:21.270Z,67.84
2019-05-23T20:02:47.839Z,68.27
2019-05-23T20:05:14.159Z,68.56
2019-05-23T20:07:40.274Z,69.15
2019-05-23T20:10:07.604Z,69.21
2019-05-23T20:12:34.256Z,69.49
2019-05-23T20:15:00.579Z,69.65
2019-05-23T20:17:26.748Z,69.58
2019-05-23T20:19:54.112Z,70.21
2019-05-23T20:22:20.252Z,70.24
2019-05-23T20:24:46.300Z,70.77
2019-05-23T20:27:12.671Z,71.04
2019-05-23T20:29:38.811Z,71.20
2019-05-23T20:32:04.990Z,71.86
2019-05-23T20:34:31.749Z,71.47
2019-05-23T20:36:57.994Z,71.65
2019-05-23T20:39:24.025Z,71.51
2019-05-23T20:41:50.096Z,71.10
2019-05-23T20:44:16.355Z,70.63
2019-05-23T20:46:42.758Z,70.55
2019-05-23T20:49:08.973Z,70.61
2019-05-23T20:51:35.143Z,71.87
2019-05-23T20:54:02.399Z,72.55
2019-05-23T20:56:28.318Z,72.55
2019-05-23T20:58:54.412Z,72.64
2019-05-23T21:01:21.490Z,73.05
2019-05-23T21:03:47.581Z,73.29
2019-05-23T21:06:13.643Z,72.52
2019-05-23T21:08:40.077Z,73.12
2019-05-23T21:11:06.228Z,73.41
2019-05-23T21:13:32.496Z,74.11
2019-05-23T21:15:58.649Z,74.28
2019-05-23T21:18:24.872Z,73.65
2019-05-23T21:20:50.957Z,73.15
2019-05-23T21:23:17.092Z,73.55
2019-05-23T21:25:43.898Z,73.51
2019-05-23T21:28:09.957Z,73.60
2019-05-23T21:30:36.044Z,74.05
2019-05-23T21:33:02.920Z,74.33
2019-05-23T21:35:29.885Z,74.29
2019-05-23T21:37:55.928Z,74.39
2019-05-23T21:40:31.990Z,74.59
2019-05-23T21:42:58.083Z,74.31
2019-05-23T21:45:24.301Z,74.68
2019-05-23T21:47:50.297Z,74.94
2019-05-23T21:50:16.399Z,74.81
2019-05-23T21:52:42.475Z,74.71
2019-05-23T21:55:12.296Z,74.87
2019-05-23T21:57:38.271Z,75.67
2019-05-23T22:00:06.438Z,74.74
2019-05-23T22:02:34.461Z,74.35
2019-05-23T22:05:02.286Z,75.11
2019-05-23T22:07:28.735Z,75.53
2019-05-23T22:09:54.836Z,75.40
2019-05-23T22:12:21.354Z,75.64
2019-05-23T22:14:47.282Z,75.96
2019-05-23T22:17:13.661Z,75.80
2019-05-23T22:19:39.654Z,75.54
2019-05-23T22:22:05.910Z,74.55
2019-05-23T22:24:33.125Z,74.34
2019-05-23T22:26:59.092Z,73.77
2019-05-23T22:29:25.025Z,74.21
2019-05-23T22:31:51.677Z,74.97
2019-05-23T22:34:17.861Z,75.76
2019-05-23T22:36:43.992Z,76.65
2019-05-23T22:39:10.080Z,77.23
2019-05-23T22:41:36.357Z,76.85
2019-05-23T22:44:02.839Z,76.72
2019-05-23T22:46:28.917Z,78.58
2019-05-23T22:48:54.946Z,79.28
2019-05-23T22:51:20.928Z,78.97
2019-05-23T22:53:46.986Z,78.24
2019-05-23T22:56:13.046Z,78.11
2019-05-23T22:58:38.990Z,78.25
2019-05-23T23:01:04.984Z,78.45
2019-05-23T23:03:31.196Z,78.57
2019-05-23T23:05:57.404Z,78.48
2019-05-23T23:08:23.907Z,78.69
2019-05-23T23:10:50.227Z,78.90
2019-05-23T23:13:16.210Z,78.99
2019-05-23T23:15:42.363Z,78.83
2019-05-23T23:18:08.435Z,78.89
2019-05-23T23:20:34.604Z,78.04
2019-05-23T23:23:00.517Z,77.67
2019-05-23T23:25:26.589Z,77.86
2019-05-23T23:27:52.614Z,78.07
2019-05-23T23:30:18.851Z,77.75
2019-05-23T23:32:45.094Z,77.60
2019-05-23T23:35:11.427Z,77.16
2019-05-23T23:37:37.469Z,77.15
2019-05-23T23:40:05.298Z,77.00
2019-05-23T23:42:31.454Z,76.74
2019-05-23T23:44:57.530Z,76.86
2019-05-23T23:47:23.793Z,77.30
2019-05-23T23:49:50.344Z,77.63
2019-05-23T23:52:16.364Z,78.28
2019-05-23T23:54:42.549Z,78.35
2019-05-23T23:57:08.749Z,78.11
2019-05-23T23:59:34.774Z,78.21
